Time;durP1;ratioP1;P1;durP2;ratioP2;P2;SDS_P1;SDS_P2;PMS_P1;PMS_P2;Temp;Humidity;BMP_temperature;BMP_pressure;BME280_temperature;BME280_humidity;BME280_pressure;Samples;Min_cycle;Max_cycle;Signal;HPM_P1;HPM_P2
2023/07/26 00:01:58;;;;;;;15.90;7.50;;;;;;;26.81;62.06;96084.78;5069366;28;20185;-71
2023/07/26 00:04:25;;;;;;;13.47;8.20;;;;;;;26.92;61.88;96093.00;5051627;28;20301;-73
2023/07/26 00:06:52;;;;;;;12.60;8.80;;;;;;;26.76;62.57;96093.31;5053027;28;20184;-77
2023/07/26 00:09:19;;;;;;;13.67;8.40;;;;;;;26.78;62.78;96091.28;5086821;28;20234;-74
2023/07/26 00:11:46;;;;;;;10.77;7.60;;;;;;;26.88;62.33;96086.44;5087262;28;20204;-73
2023/07/26 00:14:15;;;;;;;11.80;7.67;;;;;;;27.02;62.25;96090.81;5052305;28;20204;-72
2023/07/26 00:16:42;;;;;;;14.47;9.23;;;;;;;26.92;63.15;96082.38;5068832;28;20228;-74
2023/07/26 00:19:09;;;;;;;12.10;8.53;;;;;;;26.84;62.89;96071.91;5087145;28;20188;-76
2023/07/26 00:21:37;;;;;;;15.60;9.17;;;;;;;27.02;61.95;96066.91;5068495;28;20925;-74
2023/07/26 00:24:04;;;;;;;13.60;8.53;;;;;;;26.91;62.41;96075.44;5052696;28;20271;-77
2023/07/26 00:26:31;;;;;;;14.20;8.63;;;;;;;26.96;62.30;96072.19;5067965;28;20192;-77
2023/07/26 00:28:59;;;;;;;14.30;8.73;;;;;;;26.94;62.80;96072.38;5069102;28;20203;-71
2023/07/26 00:31:26;;;;;;;18.33;9.50;;;;;;;26.91;62.21;96050.69;5086774;28;20643;-79
2023/07/26 00:33:53;;;;;;;17.23;9.53;;;;;;;26.88;62.33;96049.25;5068628;28;20679;-79
2023/07/26 00:36:20;;;;;;;16.67;9.50;;;;;;;26.79;62.16;96055.72;5087053;28;20216;-77
2023/07/26 00:38:47;;;;;;;14.57;9.90;;;;;;;26.54;63.20;96044.66;5086343;28;20253;-75
2023/07/26 00:41:16;;;;;;;13.53;9.40;;;;;;;26.54;62.98;96046.53;5086966;28;20698;-72
2023/07/26 00:43:43;;;;;;;14.07;9.70;;;;;;;26.36;63.87;96049.63;5067945;28;20190;-75
2023/07/26 00:46:11;;;;;;;15.73;11.10;;;;;;;26.31;63.43;96052.06;5086863;28;20212;-75
2023/07/26 00:48:38;;;;;;;14.90;9.90;;;;;;;26.09;64.54;96044.28;5086396;28;20639;-78
2023/07/26 00:51:09;;;;;;;17.53;10.93;;;;;;;25.83;65.51;96058.06;5051891;28;20184;-72
2023/07/26 00:53:37;;;;;;;15.53;10.83;;;;;;;25.92;65.49;96056.13;5086758;28;20184;-75
2023/07/26 00:56:04;;;;;;;16.27;11.40;;;;;;;25.80;66.14;96043.34;5089265;28;20227;-79
2023/07/26 00:58:31;;;;;;;15.00;9.67;;;;;;;26.19;65.28;96061.56;5072977;28;20195;-74
2023/07/26 01:00:59;;;;;;;18.50;11.40;;;;;;;26.06;65.20;96058.72;5055214;28;20191;-72
2023/07/26 01:03:27;;;;;;;17.37;11.77;;;;;;;25.84;65.24;96038.50;5090849;28;20184;-72
2023/07/26 01:06:00;;;;;;;16.33;11.07;;;;;;;25.04;67.89;96037.69;5071184;28;20227;-74
2023/07/26 01:08:58;;;;;;;16.60;10.47;;;;;;;24.51;69.57;96020.19;5089930;28;20781;-71
2023/07/26 01:11:38;;;;;;;14.57;9.50;;;;;;;24.73;70.30;96026.44;5057230;28;20236;-75
2023/07/26 01:14:32;;;;;;;14.33;9.17;;;;;;;25.10;69.40;96029.00;5071885;28;20663;-72
2023/07/26 01:17:00;;;;;;;14.60;9.83;;;;;;;25.50;67.82;96031.19;5077180;28;20199;-72
2023/07/26 01:19:28;;;;;;;19.13;8.87;;;;;;;25.52;67.78;96010.59;5072131;28;20195;-73
2023/07/26 01:21:55;;;;;;;14.13;8.80;;;;;;;25.86;67.38;96044.44;5071739;28;20196;-72
2023/07/26 01:24:22;;;;;;;12.73;8.17;;;;;;;25.79;67.33;96019.66;5090678;28;20223;-73
2023/07/26 01:26:49;;;;;;;15.50;9.30;;;;;;;25.50;69.31;96015.28;5071508;28;20694;-73
2023/07/26 01:29:17;;;;;;;10.77;8.30;;;;;;;25.38;70.58;96027.34;5090366;28;20192;-74
2023/07/26 01:31:45;;;;;;;14.80;8.77;;;;;;;25.47;70.20;96031.53;5089670;28;20223;-70
2023/07/26 01:34:12;;;;;;;15.63;8.83;;;;;;;25.72;69.63;96045.28;5089980;28;20184;-73
2023/07/26 01:36:40;;;;;;;12.40;8.20;;;;;;;25.65;69.41;96029.31;5071797;28;20203;-74
2023/07/26 01:39:09;;;;;;;13.27;9.27;;;;;;;25.37;70.24;96035.50;5089598;28;20188;-72
2023/07/26 01:41:37;;;;;;;14.20;10.50;;;;;;;25.26;69.47;96044.75;5055262;28;20197;-77
2023/07/26 01:44:04;;;;;;;15.40;11.33;;;;;;;25.23;68.99;96023.06;5070892;28;20204;-71
2023/07/26 01:46:31;;;;;;;17.83;12.63;;;;;;;25.15;69.67;96034.59;5089998;28;20679;-71
2023/07/26 01:48:58;;;;;;;18.87;12.37;;;;;;;25.11;69.75;96043.91;5089666;28;20215;-73
2023/07/26 01:51:26;;;;;;;17.83;11.30;;;;;;;25.04;70.04;96035.88;5071679;28;20194;-80
2023/07/26 01:53:53;;;;;;;16.60;10.80;;;;;;;25.01;70.99;96040.72;5089833;28;20689;-79
2023/07/26 01:56:20;;;;;;;17.20;10.50;;;;;;;24.85;71.76;96035.63;5071224;28;20188;-79
2023/07/26 01:58:47;;;;;;;20.47;11.47;;;;;;;24.48;72.84;96033.81;5089232;28;20902;-79
2023/07/26 02:01:14;;;;;;;17.63;11.97;;;;;;;24.36;73.89;96023.84;5067557;28;20191;-75
2023/07/26 02:03:42;;;;;;;19.47;10.10;;;;;;;24.59;72.32;96025.41;5071116;28;20206;-73
2023/07/26 02:06:09;;;;;;;14.50;10.57;;;;;;;24.64;72.09;96017.75;5069349;28;20583;-74
2023/07/26 02:08:36;;;;;;;15.47;11.03;;;;;;;24.74;72.61;96025.47;5088773;28;20225;-72
2023/07/26 02:11:03;;;;;;;15.60;10.07;;;;;;;24.83;72.20;96021.72;5070736;28;20768;-74
2023/07/26 02:13:31;;;;;;;17.47;10.87;;;;;;;25.01;71.86;96014.22;5054274;28;20599;-79
2023/07/26 02:15:59;;;;;;;13.77;10.00;;;;;;;25.17;71.16;96021.16;5069484;28;20567;-72
2023/07/26 02:18:26;;;;;;;14.60;9.77;;;;;;;25.07;70.88;96020.63;5069569;28;20547;-71
2023/07/26 02:20:59;;;;;;;16.30;10.20;;;;;;;25.21;70.33;96025.91;5089643;28;20195;-74
2023/07/26 02:23:26;;;;;;;16.43;10.30;;;;;;;25.32;70.04;96028.09;5070611;28;20208;-73
2023/07/26 02:25:53;;;;;;;14.27;10.40;;;;;;;25.38;69.12;96021.22;5070853;28;20215;-71
2023/07/26 02:28:20;;;;;;;16.73;9.97;;;;;;;25.58;67.88;96023.13;5054207;28;20727;-71
2023/07/26 02:30:47;;;;;;;19.23;10.60;;;;;;;25.33;68.93;96005.03;5070475;28;20203;-76
2023/07/26 02:33:15;;;;;;;14.90;10.20;;;;;;;25.27;68.64;96019.84;5071069;28;20202;-71
2023/07/26 02:35:42;;;;;;;17.97;10.60;;;;;;;25.43;68.26;96006.41;5070019;28;20199;-71
2023/07/26 02:38:10;;;;;;;13.27;9.73;;;;;;;25.38;67.77;95995.53;5054211;28;20282;-73
2023/07/26 02:40:37;;;;;;;17.83;10.23;;;;;;;25.59;67.45;96014.16;5070252;28;20231;-72
2023/07/26 02:43:04;;;;;;;18.50;10.90;;;;;;;25.57;67.36;96012.72;5088598;28;20180;-71
2023/07/26 02:45:33;;;;;;;15.40;10.63;;;;;;;25.78;66.87;96015.38;5088419;28;20227;-71
2023/07/26 02:48:00;;;;;;;12.27;9.27;;;;;;;25.84;66.21;96007.47;5070372;28;20557;-70
2023/07/26 02:50:27;;;;;;;15.73;10.23;;;;;;;25.91;65.75;96009.34;5088707;28;20288;-72
2023/07/26 02:52:54;;;;;;;15.63;10.07;;;;;;;25.89;65.96;96009.56;5069880;28;20637;-70
2023/07/26 02:55:21;;;;;;;15.50;10.93;;;;;;;25.82;65.81;96006.84;5070805;28;20211;-72
2023/07/26 02:57:48;;;;;;;14.47;9.63;;;;;;;25.84;65.57;95996.84;5087935;28;20181;-76
2023/07/26 03:00:16;;;;;;;14.00;9.90;;;;;;;25.65;65.88;96002.81;5088627;28;20199;-71
2023/07/26 03:02:43;;;;;;;14.67;9.70;;;;;;;25.71;65.94;96001.22;5053269;28;20663;-71
2023/07/26 03:05:10;;;;;;;16.70;11.30;;;;;;;25.74;65.44;96008.78;5069657;28;20212;-73
2023/07/26 03:07:37;;;;;;;13.17;9.83;;;;;;;25.76;65.77;96022.72;5070081;28;20302;-71
2023/07/26 03:10:05;;;;;;;16.00;11.20;;;;;;;25.67;66.28;96015.88;5087347;28;20229;-71
2023/07/26 03:12:32;;;;;;;18.50;11.87;;;;;;;25.42;66.94;96010.09;5070374;28;20286;-71
2023/07/26 03:15:00;;;;;;;17.37;12.07;;;;;;;25.45;66.89;96017.66;5069020;28;20195;-76
2023/07/26 03:17:32;;;;;;;20.87;12.47;;;;;;;25.42;67.25;96018.03;5067593;28;20208;-71
2023/07/26 03:19:59;;;;;;;21.77;11.97;;;;;;;25.18;67.74;95997.13;5087655;28;20628;-71
2023/07/26 03:22:31;;;;;;;19.30;12.20;;;;;;;25.39;67.75;96007.75;5088279;28;20195;-71
2023/07/26 03:24:58;;;;;;;20.83;11.40;;;;;;;24.96;69.40;96012.13;5069769;28;20185;-74
2023/07/26 03:27:25;;;;;;;18.07;12.03;;;;;;;25.14;68.79;96003.81;5087161;28;20299;-71
2023/07/26 03:29:52;;;;;;;15.50;11.60;;;;;;;24.72;69.95;95998.31;5053565;28;20265;-75
2023/07/26 03:32:19;;;;;;;15.90;11.30;;;;;;;24.64;70.60;96001.03;5069253;28;20667;-71
2023/07/26 03:34:49;;;;;;;17.57;10.73;;;;;;;24.46;71.16;95985.50;5066313;28;20189;-79
2023/07/26 03:37:16;;;;;;;18.80;11.73;;;;;;;24.66;70.33;95968.09;5068749;28;20262;-71
2023/07/26 03:39:43;;;;;;;22.40;16.97;;;;;;;24.87;70.05;96001.81;5066776;28;20231;-76
2023/07/26 03:42:10;;;;;;;20.87;11.67;;;;;;;25.17;69.00;96007.91;5064737;28;20203;-77
2023/07/26 03:44:37;;;;;;;18.93;11.80;;;;;;;25.42;67.97;96015.38;5068037;28;20280;-76
2023/07/26 03:47:08;;;;;;;20.50;11.37;;;;;;;25.39;67.50;96005.13;5087806;28;20251;-80
2023/07/26 03:49:39;;;;;;;18.10;10.47;;;;;;;25.61;67.34;96011.31;5051031;28;20219;-72
2023/07/26 03:52:06;;;;;;;16.37;11.30;;;;;;;25.74;67.06;96006.97;5086828;28;20185;-79
2023/07/26 03:54:34;;;;;;;19.07;11.10;;;;;;;25.75;66.64;96016.56;5086728;28;20648;-72
2023/07/26 03:57:01;;;;;;;21.80;14.77;;;;;;;25.61;67.16;96011.31;5086489;28;20697;-76
2023/07/26 03:59:28;;;;;;;20.03;13.53;;;;;;;25.43;67.78;95998.47;5065402;28;20676;-81
2023/07/26 04:01:55;;;;;;;22.40;13.00;;;;;;;25.24;68.37;96014.94;5048352;28;20188;-72
2023/07/26 04:04:22;;;;;;;19.07;11.30;;;;;;;25.00;69.97;96010.75;5032247;28;20288;-79
2023/07/26 04:06:49;;;;;;;22.80;11.93;;;;;;;25.04;69.54;96000.59;5066095;28;20235;-80
2023/07/26 04:09:16;;;;;;;17.53;11.73;;;;;;;24.82;70.58;95998.88;5056537;28;20288;-84
2023/07/26 04:11:43;;;;;;;18.63;11.40;;;;;;;24.86;70.75;95997.50;5085652;28;20285;-81
2023/07/26 04:14:10;;;;;;;18.17;11.57;;;;;;;24.82;71.38;95977.69;5068169;28;20196;-81
2023/07/26 04:16:37;;;;;;;18.83;11.33;;;;;;;25.28;69.54;95995.00;5051887;28;20195;-77
2023/07/26 04:19:04;;;;;;;14.30;10.37;;;;;;;25.44;69.96;95994.00;5068204;28;20200;-73
2023/07/26 04:21:31;;;;;;;18.07;10.23;;;;;;;25.71;69.00;95998.56;5087252;28;20576;-82
2023/07/26 04:23:58;;;;;;;16.40;10.63;;;;;;;25.88;68.27;96001.78;5086173;28;20188;-81
2023/07/26 04:26:25;;;;;;;15.93;11.67;;;;;;;26.07;67.10;95996.69;5068823;28;20687;-84
2023/07/26 04:28:52;;;;;;;15.23;9.53;;;;;;;25.92;67.77;95992.44;5086261;28;20212;-80
2023/07/26 04:31:19;;;;;;;13.20;9.73;;;;;;;26.02;67.05;95987.63;5068496;28;20707;-79
2023/07/26 04:33:48;;;;;;;14.23;9.77;;;;;;;26.25;66.12;95998.91;5069651;28;20206;-73
2023/07/26 04:36:15;;;;;;;17.80;11.57;;;;;;;26.34;65.67;95982.63;5076273;28;20198;-75
2023/07/26 04:38:42;;;;;;;16.87;10.90;;;;;;;26.45;64.88;95976.78;5090947;28;20189;-77
2023/07/26 04:41:10;;;;;;;21.60;11.50;;;;;;;26.66;64.57;95983.88;5086655;28;20196;-81
2023/07/26 04:43:37;;;;;;;15.97;10.50;;;;;;;26.51;65.06;95999.09;5086925;28;20860;-78
2023/07/26 04:46:04;;;;;;;18.33;10.83;;;;;;;26.52;65.12;95987.47;5086237;28;20311;-77
2023/07/26 04:48:31;;;;;;;18.30;11.13;;;;;;;26.89;64.25;96005.72;5086512;28;20246;-79
2023/07/26 04:50:58;;;;;;;23.37;10.77;;;;;;;27.07;63.65;95983.91;5068664;28;20193;-80
2023/07/26 04:53:25;;;;;;;15.73;9.93;;;;;;;27.08;63.24;96004.19;5086149;28;20234;-77
2023/07/26 04:55:52;;;;;;;20.13;11.40;;;;;;;26.80;64.64;96001.56;5052106;28;20196;-76
2023/07/26 04:58:21;;;;;;;22.50;10.10;;;;;;;27.15;64.69;96003.19;5085527;28;20708;-80
2023/07/26 05:00:48;;;;;;;23.77;11.30;;;;;;;27.40;63.30;95990.22;5086629;28;20189;-79
2023/07/26 05:03:15;;;;;;;22.77;11.93;;;;;;;27.82;61.53;95989.13;5086039;28;20197;-76
2023/07/26 05:05:51;;;;;;;18.80;10.37;;;;;;;27.81;60.66;95995.44;5086445;28;20217;-73
2023/07/26 05:08:20;;;;;;;16.43;10.13;;;;;;;27.63;61.08;95987.22;5086412;28;20184;-76
2023/07/26 05:10:50;;;;;;;18.93;11.87;;;;;;;27.48;61.60;95981.25;5085849;28;20579;-75
2023/07/26 05:13:18;;;;;;;24.93;11.47;;;;;;;27.36;61.58;95995.13;5087071;28;20584;-79
2023/07/26 05:15:46;;;;;;;21.30;11.57;;;;;;;27.86;60.37;95996.47;5085984;28;20249;-81
2023/07/26 05:18:14;;;;;;;17.10;10.90;;;;;;;27.92;60.58;96000.19;5086806;28;20185;-75
2023/07/26 05:20:45;;;;;;;16.77;10.20;;;;;;;27.78;60.56;95986.00;5068986;28;20620;-76
2023/07/26 05:23:12;;;;;;;18.07;12.00;;;;;;;27.79;60.71;95979.69;5090561;28;20191;-75
2023/07/26 05:25:41;;;;;;;20.20;11.80;;;;;;;28.13;59.72;95976.09;5092004;28;20189;-77
2023/07/26 05:28:10;;;;;;;19.33;11.20;;;;;;;27.59;61.38;95959.38;5094288;28;20189;-76
2023/07/26 05:30:41;;;;;;;21.07;12.30;;;;;;;27.99;60.41;95974.41;5097361;28;20695;-76
2023/07/26 05:33:09;;;;;;;20.47;11.20;;;;;;;28.36;59.13;95978.34;5091316;28;20254;-79
2023/07/26 05:35:38;;;;;;;17.77;11.40;;;;;;;28.44;57.87;95975.44;5087326;28;20188;-75
2023/07/26 05:38:05;;;;;;;19.20;11.37;;;;;;;28.28;58.62;95986.50;5086960;28;20581;-77
2023/07/26 05:40:33;;;;;;;19.17;11.60;;;;;;;28.36;58.20;95992.44;5086461;28;20686;-71
2023/07/26 05:43:00;;;;;;;19.73;11.40;;;;;;;28.35;58.53;95996.16;5072304;28;20185;-77
2023/07/26 05:45:29;;;;;;;28.43;11.70;;;;;;;28.76;57.15;95985.25;5071570;28;20210;-77
2023/07/26 05:47:56;;;;;;;20.03;11.43;;;;;;;28.73;57.81;95986.50;5089988;28;20279;-79
2023/07/26 05:50:24;;;;;;;16.37;11.37;;;;;;;28.85;56.89;95981.38;5070642;28;20227;-82
2023/07/26 05:52:52;;;;;;;18.13;11.40;;;;;;;28.94;56.81;95990.75;5089523;28;20664;-77
2023/07/26 05:55:19;;;;;;;20.47;11.37;;;;;;;29.26;55.41;95984.53;5089117;28;20843;-80
2023/07/26 05:57:46;;;;;;;22.33;11.00;;;;;;;29.47;55.36;95983.44;5071152;28;20195;-82
2023/07/26 06:00:13;;;;;;;20.50;11.23;;;;;;;29.77;53.66;95999.69;5071283;28;20837;-80
2023/07/26 06:02:41;;;;;;;21.27;11.13;;;;;;;29.76;53.39;95998.88;5070770;28;20212;-79
2023/07/26 06:05:09;;;;;;;15.87;10.13;;;;;;;29.63;54.08;95990.94;5089571;28;20209;-78
2023/07/26 06:07:36;;;;;;;16.33;11.83;;;;;;;29.78;53.50;95999.47;5088396;28;20236;-76
2023/07/26 06:10:04;;;;;;;18.20;11.77;;;;;;;29.55;53.89;96001.84;5089243;28;20319;-82
2023/07/26 06:12:32;;;;;;;15.60;11.17;;;;;;;29.75;54.19;96007.94;5089436;28;20215;-74
2023/07/26 06:14:59;;;;;;;19.97;11.70;;;;;;;29.84;54.09;96006.66;5090303;28;20184;-78
2023/07/26 06:17:27;;;;;;;16.90;11.37;;;;;;;29.80;53.60;95989.41;5096283;28;20264;-76
2023/07/26 06:19:54;;;;;;;19.47;11.23;;;;;;;29.86;53.90;95982.41;5076561;28;20211;-76
2023/07/26 06:22:21;;;;;;;16.67;11.17;;;;;;;29.78;54.75;95996.81;5089883;28;20303;-78
2023/07/26 06:24:48;;;;;;;15.30;10.80;;;;;;;29.90;55.58;95997.78;5054046;28;20191;-79
2023/07/26 06:27:23;;;;;;;19.23;11.43;;;;;;;29.85;53.68;95946.88;5089514;28;20228;-79
2023/07/26 06:29:50;;;;;;;15.00;10.90;;;;;;;29.99;53.17;95982.31;5088525;28;20277;-76
2023/07/26 06:32:17;;;;;;;15.80;10.90;;;;;;;30.39;53.05;95976.50;5088699;28;20189;-79
2023/07/26 06:34:44;;;;;;;14.53;9.10;;;;;;;30.41;51.65;95979.75;5088506;28;20683;-71
2023/07/26 06:37:12;;;;;;;23.38;11.35;;;;;;;30.53;51.57;95978.00;5088323;28;20184;-75
2023/07/26 06:39:39;;;;;;;16.07;10.37;;;;;;;30.69;50.25;95973.94;5088495;28;20719;-74
2023/07/26 06:42:07;;;;;;;14.17;10.37;;;;;;;30.81;50.79;95982.06;5069285;28;20578;-73
2023/07/26 06:44:34;;;;;;;19.23;11.70;;;;;;;30.90;50.16;95964.69;5088256;28;20220;-73
2023/07/26 06:47:01;;;;;;;17.75;11.15;;;;;;;31.21;50.83;95959.19;5069397;28;20271;-73
2023/07/26 06:49:28;;;;;;;14.82;10.30;;;;;;;31.16;49.10;95967.09;5087936;28;20189;-72
2023/07/26 06:51:55;;;;;;;19.80;11.70;;;;;;;31.25;49.24;95971.91;5069055;28;20558;-74
2023/07/26 06:54:24;;;;;;;19.63;11.95;;;;;;;31.37;47.76;95973.84;5068629;28;20203;-72
2023/07/26 06:56:51;;;;;;;14.05;10.43;;;;;;;31.06;49.00;95972.13;5087865;28;20200;-73
2023/07/26 06:59:20;;;;;;;22.20;11.73;;;;;;;30.68;49.29;95971.50;5065593;28;20750;-74
2023/07/26 07:01:47;;;;;;;16.35;11.27;;;;;;;30.87;50.16;95957.94;5053251;28;20315;-73
2023/07/26 07:04:15;;;;;;;22.27;14.13;;;;;;;31.02;48.68;95949.53;5053652;28;20250;-76
2023/07/26 07:06:43;;;;;;;16.63;11.60;;;;;;;30.97;49.51;95960.09;5072245;28;20235;-77
2023/07/26 07:09:12;;;;;;;18.10;11.43;;;;;;;31.14;48.89;95945.91;5086364;28;20274;-73
2023/07/26 07:11:39;;;;;;;20.40;11.15;;;;;;;31.43;48.09;95946.22;5068882;28;20740;-72
2023/07/26 07:14:06;;;;;;;16.00;10.10;;;;;;;31.41;48.79;95943.72;5049761;28;20200;-77
2023/07/26 07:16:37;;;;;;;18.30;10.43;;;;;;;31.37;47.98;95937.16;5069545;28;20287;-73
2023/07/26 07:19:04;;;;;;;16.63;11.52;;;;;;;31.40;48.15;95928.72;5073229;28;20189;-73
2023/07/26 07:21:32;;;;;;;15.93;10.07;;;;;;;31.19;49.94;95930.00;5048709;28;20194;-75
2023/07/26 07:24:00;;;;;;;17.30;13.15;;;;;;;31.13;49.59;95932.75;5048313;28;20683;-72
2023/07/26 07:26:27;;;;;;;21.67;13.25;;;;;;;30.99;49.69;95925.94;5048784;28;20744;-72
2023/07/26 07:28:55;;;;;;;19.25;12.93;;;;;;;30.75;50.12;95926.81;5066819;28;20185;-72
2023/07/26 07:31:22;;;;;;;17.95;13.02;;;;;;;30.99;49.31;95917.91;5067070;28;20193;-75
2023/07/26 07:33:49;;;;;;;22.07;10.27;;;;;;;30.97;50.47;95925.34;5052435;28;20204;-71
2023/07/26 07:36:19;;;;;;;16.77;10.73;;;;;;;31.10;48.82;95893.06;5068970;28;20192;-74
2023/07/26 07:38:47;;;;;;;13.90;10.32;;;;;;;31.21;49.25;95932.44;5086934;28;20595;-74
2023/07/26 07:41:14;;;;;;;17.35;10.10;;;;;;;31.31;48.79;95930.03;5052350;28;20706;-71
2023/07/26 07:43:42;;;;;;;16.65;9.85;;;;;;;31.51;47.80;95930.63;5069118;28;20256;-73
2023/07/26 07:46:09;;;;;;;14.25;9.10;;;;;;;31.41;47.88;95925.00;5068585;28;20193;-72
2023/07/26 07:48:37;;;;;;;17.35;10.02;;;;;;;31.70;47.10;95909.97;5052741;28;20665;-72
2023/07/26 07:51:04;;;;;;;15.18;10.23;;;;;;;32.07;46.60;95922.19;5068219;28;20181;-72
2023/07/26 07:53:31;;;;;;;16.30;9.32;;;;;;;31.73;46.92;95899.63;5068655;28;20200;-72
2023/07/26 07:56:00;;;;;;;17.10;11.00;;;;;;;31.68;46.72;95851.28;5068140;28;20181;-72
2023/07/26 07:58:27;;;;;;;19.90;9.95;;;;;;;32.08;46.78;95907.75;5086455;28;20246;-72
2023/07/26 08:00:59;;;;;;;14.35;10.10;;;;;;;31.76;47.47;95903.69;5087897;28;20195;-72
2023/07/26 08:03:28;;;;;;;15.80;11.00;;;;;;;32.01;47.37;95893.66;5053275;28;20761;-76
2023/07/26 08:05:55;;;;;;;17.58;11.30;;;;;;;31.05;48.31;95875.03;5086550;28;20699;-72
2023/07/26 08:08:23;;;;;;;18.38;10.45;;;;;;;31.18;49.51;95898.91;5068016;28;20770;-76
2023/07/26 08:10:50;;;;;;;20.23;14.48;;;;;;;31.65;48.04;95885.75;5068893;28;20268;-74
2023/07/26 08:13:18;;;;;;;14.93;10.63;;;;;;;31.50;48.55;95880.81;5086267;28;20191;-72
2023/07/26 08:15:45;;;;;;;13.65;10.25;;;;;;;31.57;48.02;95881.53;5068200;28;20204;-72
2023/07/26 08:18:12;;;;;;;16.20;10.57;;;;;;;31.78;48.50;95896.28;5067639;28;20192;-72
2023/07/26 08:20:39;;;;;;;18.55;10.20;;;;;;;32.18;46.93;95893.78;5068261;28;20196;-71
2023/07/26 08:23:06;;;;;;;18.75;11.80;;;;;;;32.22;46.11;95876.19;5068366;28;20188;-70
2023/07/26 08:25:34;;;;;;;17.92;10.90;;;;;;;32.35;46.74;95886.69;5085586;28;20184;-71
2023/07/26 08:28:01;;;;;;;16.58;10.32;;;;;;;32.36;46.13;95885.63;5086894;28;20224;-74
2023/07/26 08:30:29;;;;;;;16.08;10.95;;;;;;;32.29;45.99;95882.25;5085722;28;20284;-71
2023/07/26 08:32:56;;;;;;;15.85;10.55;;;;;;;32.48;45.67;95878.44;5086492;28;20197;-72
2023/07/26 08:35:23;;;;;;;18.15;10.07;;;;;;;32.04;46.90;95875.25;5067749;28;20292;-72
2023/07/26 08:37:51;;;;;;;15.27;10.38;;;;;;;31.73;47.32;95883.56;5067731;28;20199;-72
2023/07/26 08:40:18;;;;;;;23.45;14.65;;;;;;;31.87;47.80;95890.34;5067801;28;20564;-72
2023/07/26 08:42:46;;;;;;;13.60;9.63;;;;;;;31.70;47.27;95867.94;5068271;28;20235;-72
2023/07/26 08:45:13;;;;;;;13.15;9.77;;;;;;;32.02;47.81;95881.91;5068742;28;20192;-73
2023/07/26 08:47:41;;;;;;;17.20;8.93;;;;;;;32.38;46.90;95883.50;5085266;28;20220;-73
2023/07/26 08:50:09;;;;;;;15.70;9.70;;;;;;;32.46;46.87;95880.53;5068708;28;20672;-71
2023/07/26 08:52:37;;;;;;;15.90;9.32;;;;;;;32.33;46.33;95881.56;5068326;28;20192;-71
2023/07/26 08:55:06;;;;;;;12.18;8.85;;;;;;;32.48;46.21;95881.13;5070932;28;20584;-74
2023/07/26 08:57:33;;;;;;;10.63;8.80;;;;;;;32.53;46.14;95878.53;5073160;28;20197;-71
2023/07/26 09:00:00;;;;;;;13.55;9.13;;;;;;;32.62;45.71;95869.09;5087447;28;20185;-73
2023/07/26 09:02:34;;;;;;;13.43;8.75;;;;;;;32.93;45.52;95874.03;5071178;28;20200;-72
2023/07/26 09:05:09;;;;;;;14.60;9.23;;;;;;;32.89;45.25;95875.56;5070955;28;20735;-73
2023/07/26 09:07:37;;;;;;;15.82;9.32;;;;;;;32.99;45.21;95870.44;5071698;28;20361;-72
2023/07/26 09:10:05;;;;;;;15.57;8.85;;;;;;;33.33;44.86;95879.41;5085960;28;20226;-72
2023/07/26 09:12:32;;;;;;;14.32;9.40;;;;;;;32.87;44.69;95880.38;5085873;28;20220;-72
2023/07/26 09:15:05;;;;;;;11.70;8.50;;;;;;;32.69;45.05;95830.34;5068344;28;20618;-75
2023/07/26 09:17:43;;;;;;;18.98;8.90;;;;;;;33.23;43.89;95863.94;5070949;28;20187;-72
2023/07/26 09:20:38;;;;;;;16.73;8.65;;;;;;;33.41;43.14;95861.03;5090066;28;20895;-72
2023/07/26 09:23:05;;;;;;;11.98;8.45;;;;;;;33.38;42.59;95861.53;5085858;28;20196;-74
2023/07/26 09:25:44;;;;;;;10.00;8.20;;;;;;;33.45;43.03;95862.19;5071219;28;20193;-72
2023/07/26 09:28:15;;;;;;;17.42;9.30;;;;;;;33.67;42.34;95854.28;5090063;28;20768;-73
2023/07/26 09:30:48;;;;;;;12.60;8.55;;;;;;;33.58;42.92;95859.25;5088883;28;20590;-74
2023/07/26 09:33:16;;;;;;;12.70;8.27;;;;;;;33.76;42.12;95847.44;5089777;28;20189;-72
2023/07/26 09:35:52;;;;;;;14.07;7.85;;;;;;;33.92;41.88;95843.16;5054282;28;20213;-72
2023/07/26 09:38:24;;;;;;;10.98;7.97;;;;;;;33.95;41.16;95845.34;5071011;28;20271;-72
2023/07/26 09:40:51;;;;;;;15.30;8.43;;;;;;;34.04;40.56;95846.59;5089263;28;20864;-78
2023/07/26 09:43:32;;;;;;;12.93;7.90;;;;;;;33.28;41.88;95809.53;5089098;28;20199;-73
2023/07/26 09:46:04;;;;;;;14.10;8.50;;;;;;;33.55;40.42;95808.69;5072955;28;20188;-73
2023/07/26 09:48:34;;;;;;;12.18;7.47;;;;;;;33.64;41.38;95831.41;5054712;28;20226;-72
2023/07/26 09:51:08;;;;;;;12.32;7.57;;;;;;;33.72;41.40;95821.34;5071213;28;20366;-73
2023/07/26 09:53:40;;;;;;;14.05;8.20;;;;;;;34.01;40.88;95810.25;5089409;28;20181;-78
2023/07/26 09:56:08;;;;;;;15.23;8.15;;;;;;;33.96;40.64;95803.97;5053801;28;20256;-71
2023/07/26 09:58:38;;;;;;;11.25;7.28;;;;;;;34.02;39.21;95803.84;5089643;28;20196;-71
2023/07/26 10:01:07;;;;;;;13.65;8.48;;;;;;;34.20;39.77;95806.25;5088574;28;20281;-71
2023/07/26 10:03:36;;;;;;;16.50;8.75;;;;;;;34.34;39.67;95801.31;5088804;28;20281;-73
2023/07/26 10:06:04;;;;;;;15.20;8.00;;;;;;;34.43;38.91;95803.34;5053848;28;20196;-72
2023/07/26 10:08:32;;;;;;;13.88;8.25;;;;;;;34.59;38.48;95799.00;5069856;28;20224;-71
2023/07/26 10:11:01;;;;;;;15.38;7.38;;;;;;;34.76;38.45;95799.75;5088808;28;20208;-71
2023/07/26 10:13:32;;;;;;;15.23;8.57;;;;;;;35.02;38.25;95780.16;5088464;28;20688;-75
2023/07/26 10:16:01;;;;;;;13.77;7.03;;;;;;;35.17;36.88;95772.25;5089480;28;20189;-75
2023/07/26 10:18:30;;;;;;;13.73;7.05;;;;;;;34.98;36.30;95802.44;5088178;28;20280;-75
2023/07/26 10:21:00;;;;;;;16.00;8.02;;;;;;;35.12;36.56;95782.97;5089019;28;20204;-75
2023/07/26 10:23:30;;;;;;;13.65;7.05;;;;;;;34.91;36.51;95780.28;5070446;28;20235;-75
2023/07/26 10:26:03;;;;;;;14.38;8.07;;;;;;;35.06;36.28;95767.81;5070153;28;20193;-77
2023/07/26 10:28:33;;;;;;;19.92;7.28;;;;;;;35.00;36.28;95768.84;5087521;28;20731;-75
2023/07/26 10:31:01;;;;;;;16.27;8.13;;;;;;;35.11;36.71;95754.44;5070275;28;20627;-72
2023/07/26 10:33:29;;;;;;;15.10;7.95;;;;;;;35.21;36.46;95764.47;5090486;28;20287;-73
2023/07/26 10:35:56;;;;;;;12.63;7.68;;;;;;;34.85;36.71;95740.94;5075900;28;20189;-71
2023/07/26 10:38:23;;;;;;;10.32;7.18;;;;;;;35.20;36.08;95760.97;5073900;28;20196;-82
2023/07/26 10:40:50;;;;;;;13.43;8.15;;;;;;;35.34;36.73;95753.28;5089268;28;20354;-75
2023/07/26 10:43:21;;;;;;;11.60;7.32;;;;;;;35.34;36.18;95765.94;5071098;28;20651;-76
2023/07/26 10:45:52;;;;;;;17.55;8.07;;;;;;;35.38;36.46;95742.81;5053951;28;20985;-72
2023/07/26 10:48:28;;;;;;;18.38;8.48;;;;;;;35.66;35.28;95756.00;5069526;28;20571;-72
2023/07/26 10:50:56;;;;;;;19.08;9.23;;;;;;;35.69;35.85;95758.19;5070321;28;20188;-73
2023/07/26 10:53:36;;;;;;;15.50;7.32;;;;;;;35.59;35.67;95733.88;5052265;28;20189;-74
2023/07/26 10:56:19;;;;;;;18.83;7.72;;;;;;;35.80;35.24;95746.41;5087429;28;20193;-76
2023/07/26 10:58:52;;;;;;;17.15;8.35;;;;;;;35.87;35.42;95739.72;5067363;28;20188;-72
2023/07/26 11:01:37;;;;;;;12.65;7.53;;;;;;;35.71;34.68;95727.22;5087348;28;20287;-72
2023/07/26 11:04:13;;;;;;;14.48;7.32;;;;;;;35.68;35.70;95726.91;5088487;28;21062;-75
2023/07/26 11:06:56;;;;;;;15.40;7.85;;;;;;;35.70;34.79;95725.59;5069344;28;20648;-78
2023/07/26 11:09:25;;;;;;;12.88;7.53;;;;;;;35.81;34.66;95724.59;5065851;28;20248;-72
2023/07/26 11:12:03;;;;;;;14.63;8.23;;;;;;;35.68;35.91;95722.34;5066879;28;20194;-74
2023/07/26 11:14:32;;;;;;;15.55;8.07;;;;;;;35.82;35.63;95722.69;5065744;28;20745;-75
2023/07/26 11:17:15;;;;;;;17.35;7.88;;;;;;;36.02;35.28;95709.38;5066352;28;20197;-73
2023/07/26 11:19:46;;;;;;;12.05;7.10;;;;;;;36.07;35.17;95706.69;5067475;28;20304;-72
2023/07/26 11:22:15;;;;;;;9.68;7.55;;;;;;;36.25;34.03;95692.75;5067647;28;20194;-72
2023/07/26 11:24:42;;;;;;;19.13;8.10;;;;;;;36.41;34.06;95689.09;5068053;28;20193;-71
2023/07/26 11:27:10;;;;;;;15.15;7.13;;;;;;;36.60;34.10;95692.94;5071106;28;20209;-72